createdAt,value
2017-05-25T00:05:16.771Z,0.60
2017-05-25T00:26:23.259Z,0.58
2017-05-25T00:47:28.833Z,0.60
2017-05-25T01:08:34.587Z,0.54
2017-05-25T01:29:40.113Z,0.52
2017-05-25T01:50:45.825Z,0.40
2017-05-25T02:12:05.990Z,0.50
2017-05-25T02:33:11.979Z,0.38
2017-05-25T02:54:17.579Z,0.42
2017-05-25T03:15:23.795Z,0.35
2017-05-25T03:36:28.793Z,0.57
2017-05-25T03:57:34.735Z,0.55
2017-05-25T04:18:40.358Z,0.60
2017-05-25T04:39:46.780Z,0.70
2017-05-25T05:00:52.557Z,0.70
2017-05-25T05:21:58.730Z,0.62
2017-05-25T05:43:05.333Z,1.10
2017-05-25T06:04:11.712Z,0.88
2017-05-25T06:25:17.680Z,1.00
2017-05-25T06:46:24.113Z,1.28
2017-05-25T07:07:30.685Z,1.00
2017-05-25T07:28:36.224Z,1.18
2017-05-25T07:49:41.902Z,1.10
2017-05-25T08:10:47.938Z,0.74
2017-05-25T08:31:53.690Z,1.00
2017-05-25T08:52:59.477Z,0.68
2017-05-25T09:20:19.831Z,0.96
2017-05-25T09:41:25.533Z,0.82
2017-05-25T10:02:32.456Z,0.88
2017-05-25T10:23:38.851Z,0.80
2017-05-25T10:44:44.817Z,0.80
2017-05-25T11:05:50.418Z,0.92
2017-05-25T11:26:56.425Z,0.80
2017-05-25T11:48:02.097Z,0.50
2017-05-25T12:09:08.326Z,1.00
2017-05-25T12:30:14.980Z,0.48
2017-05-25T12:51:21.956Z,0.60
2017-05-25T13:12:28.335Z,0.58
2017-05-25T13:33:35.389Z,0.70
2017-05-25T13:54:42.151Z,0.68
2017-05-25T14:15:47.906Z,0.70
2017-05-25T14:36:53.542Z,0.60
2017-05-25T14:58:00.069Z,0.94
2017-05-25T15:19:06.996Z,0.86
2017-05-25T15:40:13.201Z,0.60
2017-05-25T16:01:20.067Z,0.80
2017-05-25T16:22:26.372Z,0.82
2017-05-25T16:43:32.145Z,0.70
2017-05-25T17:04:38.402Z,0.90
2017-05-25T17:25:45.768Z,1.22
2017-05-25T17:46:52.007Z,1.10
2017-05-25T18:07:58.297Z,1.26
2017-05-25T18:29:04.494Z,1.20
2017-05-25T18:50:11.336Z,1.12
2017-05-25T19:11:18.400Z,0.98
2017-05-25T19:32:24.255Z,1.20
2017-05-25T19:53:30.009Z,1.24
2017-05-25T20:14:35.692Z,1.10
2017-05-25T20:35:42.464Z,1.68
2017-05-25T20:56:49.620Z,1.52
2017-05-25T21:21:02.984Z,1.56
2017-05-25T21:42:09.386Z,1.24
2017-05-25T22:03:15.049Z,1.30
2017-05-25T22:24:22.416Z,2.10
2017-05-25T22:45:29.532Z,2.18
2017-05-25T23:06:36.511Z,2.48
2017-05-25T23:27:43.004Z,2.96
2017-05-25T23:48:49.511Z,2.62
